Aviation Digital Data Service (ADDS)

Output produced by METARs form (2340 UTC 13 February 2016)
found at http://aviationweather.gov/adds/metars/
 
KBUF 132145Z 1322/1418 29012KT 4SM -SHSN BLSN OVC025 
     TEMPO 1322/1401 1 1/2SM -SN BKN015 
     FM140100 34008KT 2SM -SN BKN025 
     FM140600 31005KT 4SM -SHSN BKN035 
     FM140900 30004KT P6SM VCSH BKN035 
     FM141100 23005KT P6SM BKN035 
     FM141600 23004KT P6SM SCT035